Time;durP1;ratioP1;P1;durP2;ratioP2;P2;SDS_P1;SDS_P2;PMS_P1;PMS_P2;Temp;Humidity;BMP_temperature;BMP_pressure;BME280_temperature;BME280_humidity;BME280_pressure;Samples;Min_cycle;Max_cycle;Signal;HPM_P1;HPM_P2
2022/11/29 00:02:17;;;;;;;;;;;16.30;74.40;;;;;;10424415;28;20017;-66
2022/11/29 00:07:19;;;;;;;;;;;16.30;74.40;;;;;;10423710;28;19933;-67
2022/11/29 00:12:21;;;;;;;;;;;16.30;74.50;;;;;;10424085;28;19934;-67
2022/11/29 00:17:23;;;;;;;;;;;16.30;74.40;;;;;;10429900;28;20072;-68
2022/11/29 00:22:24;;;;;;;;;;;16.20;74.40;;;;;;10430432;28;20499;-68
2022/11/29 00:27:26;;;;;;;;;;;16.20;74.40;;;;;;10428744;28;20024;-69
2022/11/29 00:32:28;;;;;;;;;;;16.20;74.30;;;;;;10429113;28;19971;-68
2022/11/29 00:37:29;;;;;;;;;;;16.20;74.50;;;;;;10429351;28;20020;-67
2022/11/29 00:42:31;;;;;;;;;;;16.20;74.50;;;;;;10429208;28;19955;-68
2022/11/29 00:47:33;;;;;;;;;;;16.20;74.50;;;;;;10429905;28;19933;-68
2022/11/29 00:52:35;;;;;;;;;;;16.30;74.50;;;;;;10428195;28;20028;-69
2022/11/29 00:57:36;;;;;;;;;;;16.30;74.40;;;;;;10429286;28;20399;-67
2022/11/29 01:02:38;;;;;;;;;;;16.30;74.40;;;;;;10429196;28;19981;-67
2022/11/29 01:07:40;;;;;;;;;;;16.30;74.40;;;;;;10429738;28;20400;-67
2022/11/29 01:12:42;;;;;;;;;;;16.30;74.30;;;;;;10428130;28;19934;-67
2022/11/29 01:17:43;;;;;;;;;;;16.20;74.20;;;;;;10428963;28;19980;-67
2022/11/29 01:22:45;;;;;;;;;;;16.30;74.40;;;;;;10428671;28;20024;-67
2022/11/29 01:27:47;;;;;;;;;;;16.20;74.20;;;;;;10429416;28;19940;-68
2022/11/29 01:32:48;;;;;;;;;;;16.20;74.20;;;;;;10428969;28;20032;-66
2022/11/29 01:37:50;;;;;;;;;;;16.20;74.20;;;;;;10428400;28;19973;-66
2022/11/29 01:42:52;;;;;;;;;;;16.20;74.30;;;;;;10426664;28;20444;-66
2022/11/29 01:47:55;;;;;;;;;;;16.20;74.30;;;;;;10428489;28;20356;-66
2022/11/29 01:52:58;;;;;;;;;;;16.20;74.20;;;;;;10410144;28;19992;-66
2022/11/29 01:58:00;;;;;;;;;;;16.20;74.20;;;;;;10427558;28;20020;-66
2022/11/29 02:03:09;;;;;;;;;;;16.20;74.20;;;;;;10827533;22;20404;-67
2022/11/29 02:08:12;;;;;;;;;;;16.20;74.30;;;;;;10344549;28;19938;-68
2022/11/29 02:13:23;;;;;;;;;;;16.20;74.30;;;;;;10345546;28;19934;-68
2022/11/29 02:18:32;;;;;;;;;;;16.20;74.20;;;;;;10344970;28;19934;-68
2022/11/29 02:23:46;;;;;;;;;;;16.20;74.10;;;;;;10343954;28;19934;-66
2022/11/29 02:29:03;;;;;;;;;;;16.10;74.10;;;;;;10345311;28;19946;-66
2022/11/29 02:34:14;;;;;;;;;;;16.10;74.10;;;;;;10344965;28;20029;-66
2022/11/29 02:39:23;;;;;;;;;;;16.10;74.10;;;;;;10343412;28;19934;-66
2022/11/29 02:44:48;;;;;;;;;;;16.10;74.00;;;;;;10342729;28;19934;-66
2022/11/29 02:50:05;;;;;;;;;;;16.10;74.00;;;;;;10344559;28;19934;-66
2022/11/29 02:55:23;;;;;;;;;;;16.10;74.00;;;;;;10341417;28;20828;-66
2022/11/29 03:00:25;;;;;;;;;;;16.10;74.00;;;;;;10343930;28;20033;-66
2022/11/29 03:05:36;;;;;;;;;;;16.10;74.10;;;;;;10343321;28;19934;-67
2022/11/29 03:10:56;;;;;;;;;;;16.10;74.10;;;;;;10342178;28;20016;-66
2022/11/29 03:16:21;;;;;;;;;;;16.10;74.10;;;;;;10344406;28;19977;-66
2022/11/29 03:21:23;;;;;;;;;;;16.10;74.10;;;;;;10333417;28;20453;-68
2022/11/29 03:26:34;;;;;;;;;;;16.10;74.00;;;;;;10343885;28;20033;-66
2022/11/29 03:31:50;;;;;;;;;;;16.20;74.00;;;;;;10342890;28;20028;-67
2022/11/29 03:37:08;;;;;;;;;;;16.10;74.00;;;;;;10343194;28;19934;-66
2022/11/29 03:42:24;;;;;;;;;;;16.10;73.90;;;;;;10341597;28;19942;-67
2022/11/29 03:47:28;;;;;;;;;;;16.10;73.90;;;;;;10341690;28;20044;-67
2022/11/29 03:52:37;;;;;;;;;;;16.10;73.90;;;;;;10349820;28;19941;-66
2022/11/29 03:57:47;;;;;;;;;;;16.10;74.00;;;;;;10348597;28;20052;-66
2022/11/29 04:02:52;;;;;;;;;;;16.10;73.90;;;;;;10349081;28;19940;-66
2022/11/29 04:07:54;;;;;;;;;;;16.10;73.90;;;;;;10348526;28;20468;-66
2022/11/29 04:13:07;;;;;;;;;;;16.10;74.00;;;;;;10349034;28;20337;-66
2022/11/29 04:18:24;;;;;;;;;;;16.10;74.00;;;;;;10348721;28;19934;-66
2022/11/29 04:23:44;;;;;;;;;;;16.00;74.00;;;;;;10348723;28;20021;-67
2022/11/29 04:28:58;;;;;;;;;;;16.00;74.00;;;;;;10347938;28;20032;-66
2022/11/29 04:34:07;;;;;;;;;;;16.00;74.00;;;;;;10348777;28;19965;-67
2022/11/29 04:39:22;;;;;;;;;;;16.00;74.00;;;;;;10346943;28;19940;-68
2022/11/29 04:44:24;;;;;;;;;;;16.00;74.00;;;;;;10331338;28;19933;-67
2022/11/29 04:49:29;;;;;;;;;;;16.00;73.90;;;;;;10347840;28;20036;-68
2022/11/29 04:54:36;;;;;;;;;;;16.00;73.80;;;;;;10348533;28;19989;-66
2022/11/29 04:59:56;;;;;;;;;;;16.00;73.80;;;;;;10348808;28;20025;-68
2022/11/29 05:05:17;;;;;;;;;;;16.00;73.80;;;;;;10347204;28;20325;-67
2022/11/29 05:10:40;;;;;;;;;;;16.00;73.80;;;;;;10347641;28;19934;-67
2022/11/29 05:16:01;;;;;;;;;;;16.00;73.90;;;;;;10348079;28;20049;-67
2022/11/29 05:21:15;;;;;;;;;;;16.00;73.90;;;;;;10347814;28;20718;-66
2022/11/29 05:26:30;;;;;;;;;;;16.00;73.80;;;;;;10346978;28;19985;-66
2022/11/29 05:31:49;;;;;;;;;;;16.10;73.90;;;;;;10346338;28;20027;-66
2022/11/29 05:37:09;;;;;;;;;;;16.10;73.80;;;;;;10346547;28;20401;-66
2022/11/29 05:42:29;;;;;;;;;;;16.10;73.70;;;;;;10346637;28;19934;-67
2022/11/29 05:47:37;;;;;;;;;;;16.10;73.70;;;;;;10345775;28;19985;-67
2022/11/29 05:52:53;;;;;;;;;;;16.00;73.70;;;;;;10345354;28;20032;-67
2022/11/29 05:58:12;;;;;;;;;;;16.10;73.60;;;;;;10345914;28;19934;-67
2022/11/29 06:03:20;;;;;;;;;;;16.10;73.60;;;;;;10346085;28;20025;-66
2022/11/29 06:08:45;;;;;;;;;;;16.10;73.60;;;;;;10345746;28;20301;-67
2022/11/29 06:13:59;;;;;;;;;;;16.10;73.70;;;;;;10344166;28;20609;-67
2022/11/29 06:19:19;;;;;;;;;;;16.10;73.60;;;;;;10344347;28;20405;-67
2022/11/29 06:24:24;;;;;;;;;;;16.20;73.50;;;;;;10345262;28;20025;-66
2022/11/29 06:29:26;;;;;;;;;;;16.10;73.50;;;;;;10344560;28;20785;-68
2022/11/29 06:34:36;;;;;;;;;;;16.20;73.50;;;;;;10363563;28;20052;-68
2022/11/29 06:39:38;;;;;;;;;;;16.20;73.40;;;;;;10384782;28;19934;-67
2022/11/29 06:44:40;;;;;;;;;;;16.20;74.90;;;;;;10346303;28;19942;-66
2022/11/29 06:49:51;;;;;;;;;;;16.20;75.20;;;;;;10354160;28;19989;-67
2022/11/29 06:55:07;;;;;;;;;;;16.30;74.50;;;;;;10369228;28;20032;-66
2022/11/29 07:00:10;;;;;;;;;;;16.30;74.40;;;;;;10341982;28;19934;-67
2022/11/29 07:05:18;;;;;;;;;;;16.40;74.80;;;;;;10339046;28;19941;-68
2022/11/29 07:10:20;;;;;;;;;;;16.40;76.10;;;;;;10340373;28;20061;-68
2022/11/29 07:15:22;;;;;;;;;;;16.40;75.40;;;;;;10357887;28;20388;-69
2022/11/29 07:20:33;;;;;;;;;;;16.40;74.90;;;;;;10362815;28;20017;-68
2022/11/29 07:25:40;;;;;;;;;;;16.40;74.90;;;;;;10352824;28;20398;-68
2022/11/29 07:30:52;;;;;;;;;;;16.40;74.90;;;;;;10360389;28;20128;-68
2022/11/29 07:35:59;;;;;;;;;;;16.40;74.90;;;;;;10360076;28;20360;-68
2022/11/29 07:41:01;;;;;;;;;;;16.40;75.00;;;;;;10347009;28;20416;-68
2022/11/29 07:46:02;;;;;;;;;;;16.30;74.90;;;;;;10359642;28;19941;-68
2022/11/29 07:51:04;;;;;;;;;;;16.30;75.00;;;;;;10363891;28;19938;-70
2022/11/29 07:56:08;;;;;;;;;;;16.30;75.90;;;;;;10363042;28;20006;-69
2022/11/29 08:01:10;;;;;;;;;;;16.30;75.60;;;;;;10363800;28;19934;-68
2022/11/29 08:06:12;;;;;;;;;;;16.30;75.30;;;;;;10364697;28;20000;-68
2022/11/29 08:11:14;;;;;;;;;;;16.30;75.00;;;;;;10346174;28;19938;-68
2022/11/29 08:16:16;;;;;;;;;;;16.20;74.90;;;;;;10384370;28;20069;-69
2022/11/29 08:21:18;;;;;;;;;;;16.20;74.90;;;;;;10374220;28;19971;-70
2022/11/29 08:26:21;;;;;;;;;;;16.20;75.70;;;;;;10385119;28;19934;-68
2022/11/29 08:31:30;;;;;;;;;;;16.20;76.80;;;;;;10366387;28;19933;-68
2022/11/29 08:36:32;;;;;;;;;;;16.20;76.50;;;;;;10373705;28;20475;-68
2022/11/29 08:41:34;;;;;;;;;;;16.20;76.90;;;;;;10386879;28;19933;-68
2022/11/29 08:53:40;;;;;;;;;;;16.10;76.70;;;;;;10386109;28;19934;-68
2022/11/29 08:57:17;;;;;;;;;;;16.10;76.70;;;;;;10385670;28;20036;-68
2022/11/29 09:02:39;;;;;;;;;;;16.00;76.70;;;;;;10384642;28;19934;-68
2022/11/29 09:07:41;;;;;;;;;;;16.00;76.70;;;;;;10386698;28;19934;-69
2022/11/29 09:12:44;;;;;;;;;;;16.00;76.60;;;;;;10388554;28;20400;-68
2022/11/29 09:17:46;;;;;;;;;;;16.00;76.50;;;;;;10389180;28;20012;-68
2022/11/29 09:22:48;;;;;;;;;;;16.00;76.30;;;;;;10387033;28;19933;-69
2022/11/29 09:27:50;;;;;;;;;;;16.00;76.30;;;;;;10388458;28;20141;-68
2022/11/29 09:32:52;;;;;;;;;;;16.00;76.30;;;;;;10387527;28;19934;-69
2022/11/29 09:37:54;;;;;;;;;;;15.90;76.10;;;;;;10388489;28;20412;-69
2022/11/29 09:43:01;;;;;;;;;;;15.90;76.00;;;;;;10387310;28;20016;-70
2022/11/29 09:48:21;;;;;;;;;;;15.90;76.00;;;;;;10387325;28;20020;-70
2022/11/29 09:53:42;;;;;;;;;;;15.90;75.90;;;;;;10387123;28;19934;-69
2022/11/29 09:58:49;;;;;;;;;;;15.90;76.00;;;;;;10387874;28;19934;-68
2022/11/29 10:03:52;;;;;;;;;;;16.00;76.30;;;;;;10386044;28;19973;-69
2022/11/29 10:09:00;;;;;;;;;;;16.00;75.70;;;;;;10386149;28;19941;-68
2022/11/29 10:14:08;;;;;;;;;;;16.00;75.60;;;;;;10386272;28;19985;-68
2022/11/29 10:19:14;;;;;;;;;;;16.00;75.60;;;;;;10386593;28;20036;-69
2022/11/29 10:24:19;;;;;;;;;;;16.10;76.60;;;;;;10386529;28;19934;-68
2022/11/29 10:29:21;;;;;;;;;;;16.10;75.50;;;;;;10386177;28;20036;-68
2022/11/29 10:34:24;;;;;;;;;;;16.00;75.40;;;;;;10386760;28;20000;-68
2022/11/29 10:39:36;;;;;;;;;;;16.00;75.40;;;;;;10386032;28;19981;-69
2022/11/29 10:44:37;;;;;;;;;;;16.00;75.40;;;;;;10384462;28;19972;-68
2022/11/29 10:49:39;;;;;;;;;;;16.00;75.40;;;;;;10383845;28;20369;-69
2022/11/29 10:54:41;;;;;;;;;;;16.00;75.30;;;;;;10385927;28;20399;-68
2022/11/29 11:00:03;;;;;;;;;;;16.00;75.30;;;;;;10383046;28;19988;-67
2022/11/29 11:05:17;;;;;;;;;;;16.00;75.30;;;;;;10384156;28;20364;-68
2022/11/29 11:10:26;;;;;;;;;;;16.00;75.30;;;;;;10385449;28;19934;-67
2022/11/29 11:15:28;;;;;;;;;;;16.00;75.40;;;;;;10384680;28;20411;-68
2022/11/29 11:20:35;;;;;;;;;;;16.00;75.30;;;;;;10385339;28;20285;-67
2022/11/29 11:25:38;;;;;;;;;;;16.00;75.30;;;;;;10384525;28;20024;-67
2022/11/29 11:30:47;;;;;;;;;;;16.00;75.30;;;;;;10385041;28;19940;-68
2022/11/29 11:36:01;;;;;;;;;;;15.90;75.30;;;;;;10385379;28;19941;-67
2022/11/29 11:41:15;;;;;;;;;;;15.90;75.30;;;;;;10383892;28;20085;-68
2022/11/29 11:46:17;;;;;;;;;;;16.00;75.30;;;;;;10384370;28;20312;-68
2022/11/29 11:51:21;;;;;;;;;;;15.90;75.20;;;;;;10384864;28;19973;-68
2022/11/29 11:56:23;;;;;;;;;;;15.90;75.40;;;;;;10384396;28;19969;-67
2022/11/29 12:01:25;;;;;;;;;;;15.90;75.40;;;;;;10384402;28;20154;-67
2022/11/29 12:06:34;;;;;;;;;;;15.90;75.40;;;;;;10383166;28;20285;-67
2022/11/29 12:11:41;;;;;;;;;;;15.90;75.40;;;;;;10387793;28;20029;-68
2022/11/29 12:16:44;;;;;;;;;;;15.90;75.50;;;;;;10390441;28;20439;-69
2022/11/29 12:21:51;;;;;;;;;;;15.90;75.50;;;;;;10390316;28;20020;-68
2022/11/29 12:26:54;;;;;;;;;;;15.90;75.50;;;;;;10390384;28;20357;-69
2022/11/29 12:32:06;;;;;;;;;;;15.90;75.60;;;;;;10389383;28;19984;-69
2022/11/29 12:37:24;;;;;;;;;;;15.90;75.60;;;;;;10389992;28;20524;-68
2022/11/29 12:42:42;;;;;;;;;;;15.90;75.50;;;;;;10389815;28;20461;-68
2022/11/29 12:47:49;;;;;;;;;;;15.90;75.40;;;;;;10389290;28;19973;-68
2022/11/29 12:52:56;;;;;;;;;;;16.00;75.50;;;;;;10389233;28;20389;-68
2022/11/29 12:58:15;;;;;;;;;;;16.00;75.50;;;;;;10388869;28;20598;-68
2022/11/29 13:03:23;;;;;;;;;;;15.90;75.40;;;;;;10388341;28;19934;-69
2022/11/29 13:08:31;;;;;;;;;;;15.90;75.50;;;;;;10389138;28;19977;-68
2022/11/29 13:13:38;;;;;;;;;;;15.90;75.50;;;;;;10388997;28;20021;-68
2022/11/29 13:18:59;;;;;;;;;;;15.90;75.50;;;;;;10389025;28;19965;-68
2022/11/29 13:24:12;;;;;;;;;;;15.90;75.50;;;;;;10387851;28;20001;-68
2022/11/29 13:29:15;;;;;;;;;;;15.90;75.50;;;;;;10388160;28;19973;-68
2022/11/29 13:34:23;;;;;;;;;;;15.90;75.50;;;;;;10388344;28;19940;-68
2022/11/29 13:39:30;;;;;;;;;;;15.90;75.50;;;;;;10387464;28;20370;-68
2022/11/29 13:44:37;;;;;;;;;;;15.90;75.50;;;;;;10388254;28;19934;-68
2022/11/29 13:49:49;;;;;;;;;;;15.90;75.40;;;;;;10386860;28;19940;-69
2022/11/29 13:55:06;;;;;;;;;;;15.90;75.50;;;;;;10388107;28;19969;-68
2022/11/29 14:00:23;;;;;;;;;;;15.80;75.50;;;;;;10387591;28;19940;-69
2022/11/29 14:05:25;;;;;;;;;;;15.80;75.50;;;;;;10386152;28;19965;-67
2022/11/29 14:10:28;;;;;;;;;;;15.80;75.50;;;;;;10387395;28;19934;-68
2022/11/29 14:15:31;;;;;;;;;;;15.80;75.50;;;;;;10387232;28;20298;-68
2022/11/29 14:20:39;;;;;;;;;;;15.80;75.40;;;;;;10386307;28;19934;-68
2022/11/29 14:26:01;;;;;;;;;;;15.80;75.40;;;;;;10385447;28;19934;-68
2022/11/29 14:31:04;;;;;;;;;;;15.80;75.30;;;;;;10386063;28;19988;-68
2022/11/29 14:36:30;;;;;;;;;;;15.80;75.40;;;;;;10386412;28;19987;-69
2022/11/29 14:41:50;;;;;;;;;;;15.80;75.30;;;;;;10385125;28;20048;-69
2022/11/29 14:47:04;;;;;;;;;;;15.90;75.30;;;;;;10385612;28;19934;-69
2022/11/29 14:52:07;;;;;;;;;;;15.90;75.30;;;;;;10385658;28;20425;-68
2022/11/29 14:57:28;;;;;;;;;;;15.80;75.10;;;;;;10385210;28;20316;-69
2022/11/29 15:02:31;;;;;;;;;;;15.80;75.10;;;;;;10385274;28;19941;-68
2022/11/29 15:07:33;;;;;;;;;;;15.80;75.20;;;;;;10385573;28;19934;-68
2022/11/29 15:12:36;;;;;;;;;;;15.80;75.10;;;;;;10385032;28;20304;-68
2022/11/29 15:17:44;;;;;;;;;;;15.80;75.10;;;;;;10385653;28;20856;-68
2022/11/29 15:22:51;;;;;;;;;;;15.80;75.10;;;;;;10384584;28;19934;-69
2022/11/29 15:27:54;;;;;;;;;;;15.80;75.10;;;;;;10384237;28;19933;-69
2022/11/29 15:32:57;;;;;;;;;;;15.80;75.20;;;;;;10383586;28;19934;-67
2022/11/29 15:37:58;;;;;;;;;;;15.80;75.10;;;;;;10382939;28;20348;-67
2022/11/29 15:43:18;;;;;;;;;;;15.80;75.10;;;;;;10383756;28;19938;-68
2022/11/29 15:48:24;;;;;;;;;;;15.80;75.10;;;;;;10388479;28;19973;-68
2022/11/29 15:53:29;;;;;;;;;;;15.80;75.10;;;;;;10390128;28;20472;-69
2022/11/29 15:58:32;;;;;;;;;;;15.80;75.10;;;;;;10390334;28;20024;-68
2022/11/29 16:03:36;;;;;;;;;;;15.70;75.10;;;;;;10389723;28;19972;-68
2022/11/29 16:08:40;;;;;;;;;;;15.70;75.10;;;;;;10390336;28;19937;-69
2022/11/29 16:13:56;;;;;;;;;;;15.80;75.10;;;;;;10388989;28;20444;-68
2022/11/29 16:19:18;;;;;;;;;;;15.80;75.00;;;;;;10389649;28;20028;-68
2022/11/29 16:24:20;;;;;;;;;;;15.80;75.00;;;;;;10388329;28;20033;-68
2022/11/29 16:29:27;;;;;;;;;;;15.80;75.00;;;;;;10389056;28;20459;-68
2022/11/29 16:34:31;;;;;;;;;;;15.80;74.80;;;;;;10388927;28;19933;-67
2022/11/29 16:39:35;;;;;;;;;;;15.80;74.80;;;;;;10389662;28;20313;-68
2022/11/29 16:44:40;;;;;;;;;;;15.80;74.90;;;;;;10388985;28;20452;-69
2022/11/29 16:49:42;;;;;;;;;;;15.90;75.00;;;;;;10386292;28;19994;-69
2022/11/29 16:54:43;;;;;;;;;;;16.00;74.90;;;;;;10388639;28;19940;-70
2022/11/29 16:59:46;;;;;;;;;;;16.30;74.60;;;;;;10387301;28;20292;-68
2022/11/29 17:04:47;;;;;;;;;;;16.60;74.00;;;;;;10387307;28;19933;-67
2022/11/29 17:09:51;;;;;;;;;;;16.80;73.40;;;;;;10388097;28;19934;-68
2022/11/29 17:14:53;;;;;;;;;;;16.90;73.10;;;;;;10388377;28;19940;-68
2022/11/29 17:19:54;;;;;;;;;;;16.90;72.80;;;;;;10388630;28;20020;-69
2022/11/29 17:24:56;;;;;;;;;;;17.00;72.70;;;;;;10388653;28;20089;-69
2022/11/29 17:29:58;;;;;;;;;;;17.00;72.60;;;;;;10387393;28;20028;-69
2022/11/29 17:35:00;;;;;;;;;;;16.90;72.70;;;;;;10387194;28;19937;-70
2022/11/29 17:40:01;;;;;;;;;;;16.90;72.80;;;;;;10387261;28;19977;-68
2022/11/29 17:45:03;;;;;;;;;;;17.10;72.70;;;;;;10386576;28;20032;-68
2022/11/29 17:50:05;;;;;;;;;;;17.20;72.30;;;;;;10387505;28;19981;-68
2022/11/29 17:55:07;;;;;;;;;;;17.30;72.00;;;;;;10387060;28;19956;-68
2022/11/29 18:00:12;;;;;;;;;;;17.40;71.70;;;;;;10387076;28;19934;-67
2022/11/29 18:05:13;;;;;;;;;;;17.40;71.70;;;;;;10385868;28;20024;-69
2022/11/29 18:10:15;;;;;;;;;;;17.30;71.80;;;;;;10387163;28;20488;-69
2022/11/29 18:15:17;;;;;;;;;;;17.20;71.90;;;;;;10387393;28;20428;-68
2022/11/29 18:20:19;;;;;;;;;;;17.20;72.20;;;;;;10386349;28;20053;-68
2022/11/29 18:25:21;;;;;;;;;;;17.20;72.30;;;;;;10387026;28;19934;-68
2022/11/29 18:30:40;;;;;;;;;;;17.30;72.10;;;;;;10385534;28;19974;-69
2022/11/29 18:35:42;;;;;;;;;;;17.40;71.80;;;;;;10385702;28;20652;-68
2022/11/29 18:40:44;;;;;;;;;;;17.40;71.60;;;;;;10384297;28;19973;-68
2022/11/29 18:45:46;;;;;;;;;;;17.40;71.70;;;;;;10385466;28;19933;-68
2022/11/29 18:50:48;;;;;;;;;;;17.30;71.80;;;;;;10385498;28;19934;-68
2022/11/29 18:55:57;;;;;;;;;;;17.20;72.00;;;;;;10384721;28;20369;-68
2022/11/29 19:01:04;;;;;;;;;;;17.20;72.10;;;;;;10385036;28;19980;-68
2022/11/29 19:06:10;;;;;;;;;;;17.10;72.30;;;;;;10383624;28;20032;-68
2022/11/29 19:11:13;;;;;;;;;;;17.00;72.30;;;;;;10384193;28;19941;-69
2022/11/29 19:16:17;;;;;;;;;;;16.90;73.20;;;;;;10384591;28;20016;-70
2022/11/29 19:21:19;;;;;;;;;;;16.80;72.60;;;;;;10384046;28;19965;-69
2022/11/29 19:26:21;;;;;;;;;;;16.80;72.80;;;;;;10384532;28;20401;-68
2022/11/29 19:31:23;;;;;;;;;;;16.80;73.00;;;;;;10383932;28;19934;-69
2022/11/29 19:36:29;;;;;;;;;;;16.80;73.00;;;;;;10382715;28;19937;-68
2022/11/29 19:41:32;;;;;;;;;;;16.90;72.80;;;;;;10383492;28;20332;-69
2022/11/29 19:46:36;;;;;;;;;;;17.10;72.60;;;;;;10384048;28;20012;-69
2022/11/29 19:51:37;;;;;;;;;;;17.20;72.40;;;;;;10384124;28;19978;-67
2022/11/29 19:56:39;;;;;;;;;;;17.40;72.00;;;;;;10384486;28;20320;-68
2022/11/29 20:01:41;;;;;;;;;;;17.50;71.60;;;;;;10384390;28;20043;-68
2022/11/29 20:06:44;;;;;;;;;;;17.50;71.30;;;;;;10381602;28;19934;-69
2022/11/29 20:11:45;;;;;;;;;;;17.50;71.30;;;;;;10383639;28;19992;-70
2022/11/29 20:16:47;;;;;;;;;;;17.50;71.40;;;;;;10383624;28;20028;-68
2022/11/29 20:21:49;;;;;;;;;;;17.30;71.40;;;;;;10383913;28;19965;-69
2022/11/29 20:26:51;;;;;;;;;;;17.30;71.60;;;;;;10383330;28;19984;-69
2022/11/29 20:31:53;;;;;;;;;;;17.20;71.80;;;;;;10386030;28;20028;-70
2022/11/29 20:37:14;;;;;;;;;;;17.10;71.80;;;;;;10388277;28;19933;-69
2022/11/29 20:42:31;;;;;;;;;;;17.00;71.90;;;;;;10389908;28;19980;-68
2022/11/29 20:47:40;;;;;;;;;;;17.00;72.10;;;;;;10389647;28;20472;-66
2022/11/29 20:52:45;;;;;;;;;;;16.90;72.10;;;;;;10389571;28;20032;-67
2022/11/29 20:57:47;;;;;;;;;;;16.90;72.30;;;;;;10388533;28;20709;-66
2022/11/29 21:02:48;;;;;;;;;;;16.80;72.50;;;;;;10388847;28;20634;-68
2022/11/29 21:07:50;;;;;;;;;;;16.80;72.70;;;;;;10389472;28;20875;-68
2022/11/29 21:12:52;;;;;;;;;;;16.70;72.70;;;;;;10388634;28;20099;-69
2022/11/29 21:17:56;;;;;;;;;;;16.70;72.80;;;;;;10388964;28;25819;-68
2022/11/29 21:23:04;;;;;;;;;;;16.60;72.80;;;;;;10387770;28;20383;-67
2022/11/29 21:28:12;;;;;;;;;;;16.60;72.90;;;;;;10387993;28;20448;-68
2022/11/29 21:33:14;;;;;;;;;;;16.50;72.90;;;;;;10387964;28;20037;-68
2022/11/29 21:38:18;;;;;;;;;;;16.50;72.80;;;;;;10388056;28;20025;-68
2022/11/29 21:43:20;;;;;;;;;;;16.50;72.80;;;;;;10385972;28;20025;-68
2022/11/29 21:48:42;;;;;;;;;;;16.40;72.80;;;;;;10387238;28;19934;-69
2022/11/29 21:53:43;;;;;;;;;;;16.40;73.00;;;;;;10387568;28;19985;-68
2022/11/29 21:58:45;;;;;;;;;;;16.40;73.00;;;;;;10386791;28;20036;-67
2022/11/29 22:03:47;;;;;;;;;;;16.40;73.00;;;;;;10387054;28;20007;-67
2022/11/29 22:08:49;;;;;;;;;;;16.30;73.00;;;;;;10386416;28;20032;-67
2022/11/29 22:19:13;;;;;;;;;;;16.30;73.00;;;;;;10386201;28;19981;-67
2022/11/29 22:24:15;;;;;;;;;;;16.30;73.00;;;;;;10386738;28;19956;-68
2022/11/29 22:29:18;;;;;;;;;;;16.30;73.20;;;;;;10385943;28;20444;-68
2022/11/29 22:34:20;;;;;;;;;;;16.20;73.10;;;;;;10386665;28;20040;-68
2022/11/29 22:39:21;;;;;;;;;;;16.20;73.10;;;;;;10385342;28;19964;-68
2022/11/29 22:44:23;;;;;;;;;;;16.20;73.10;;;;;;10386587;28;19933;-69
2022/11/29 22:49:25;;;;;;;;;;;16.20;73.10;;;;;;10384605;28;19977;-67
2022/11/29 22:54:26;;;;;;;;;;;16.20;73.00;;;;;;10383923;28;20012;-67
2022/11/29 22:59:28;;;;;;;;;;;16.20;73.00;;;;;;10385190;28;19934;-67
2022/11/29 23:04:30;;;;;;;;;;;16.20;73.00;;;;;;10384608;28;19972;-67
2022/11/29 23:09:32;;;;;;;;;;;16.10;72.90;;;;;;10385432;28;20021;-67
2022/11/29 23:14:33;;;;;;;;;;;16.10;72.90;;;;;;10384735;28;20364;-67
2022/11/29 23:19:35;;;;;;;;;;;16.10;72.90;;;;;;10385272;28;19934;-67
2022/11/29 23:24:39;;;;;;;;;;;16.10;72.90;;;;;;10383699;28;19933;-68
2022/11/29 23:29:41;;;;;;;;;;;16.10;72.90;;;;;;10384757;28;19933;-68
2022/11/29 23:34:43;;;;;;;;;;;16.10;72.80;;;;;;10383516;28;19985;-67
2022/11/29 23:39:45;;;;;;;;;;;16.10;72.80;;;;;;10384640;28;20006;-67
2022/11/29 23:44:47;;;;;;;;;;;16.10;72.70;;;;;;10384275;28;19934;-68
2022/11/29 23:49:49;;;;;;;;;;;16.00;72.90;;;;;;10383709;28;20674;-68
2022/11/29 23:54:51;;;;;;;;;;;16.00;72.90;;;;;;10383148;28;19956;-68
2022/11/29 23:59:53;;;;;;;;;;;16.10;72.90;;;;;;10384419;28;19934;-68
